Time,TemperatureF,DewpointF,PressureIn,WindDirection,WindDirectionDegrees,WindSpeedMPH,WindSpeedGustMPH,Humidity,HourlyPrecipIn,Conditions,Clouds,dailyrainin,SoftwareType,DateUTC
2013-03-21 00:03:00,22.0,9.0,-100.00,ENE,70,10.0,24.0,54,0.00,,,-99.99,,2013-03-21 04:03:00,
2013-03-21 00:13:00,22.0,9.0,-100.00,ENE,63,8.0,24.0,56,0.00,,,-99.99,,2013-03-21 04:13:00,
2013-03-21 00:23:00,22.0,10.0,-100.00,ENE,70,8.0,24.0,56,0.00,,,-99.99,,2013-03-21 04:23:00,
2013-03-21 00:33:00,21.0,10.0,-100.00,East,79,7.0,24.0,59,0.00,,,-99.99,,2013-03-21 04:33:00,
2013-03-21 00:43:00,22.0,10.0,-100.00,ENE,72,7.0,24.0,59,0.00,,,-99.99,,2013-03-21 04:43:00,
2013-03-21 00:53:00,21.0,10.0,-100.00,East,81,7.0,24.0,59,0.00,,,-99.99,,2013-03-21 04:53:00,
2013-03-21 01:03:00,21.0,9.0,-100.00,ENE,63,6.0,24.0,56,0.00,,,-99.99,,2013-03-21 05:03:00,
2013-03-21 01:12:00,21.0,10.0,-100.00,ENE,69,6.0,24.0,58,0.00,,,-99.99,,2013-03-21 05:12:00,
2013-03-21 01:22:00,21.0,9.0,-100.00,ENE,73,5.0,5.0,58,0.00,,,-99.99,,2013-03-21 05:22:00,
2013-03-21 01:33:00,20.0,9.0,-100.00,ENE,76,6.0,8.0,56,0.00,,,-99.99,,2013-03-21 05:33:00,
2013-03-21 01:44:00,20.0,9.0,-100.00,ENE,76,5.0,8.0,56,0.00,,,-99.99,,2013-03-21 05:44:00,
2013-03-21 01:52:00,20.0,9.0,-100.00,East,81,4.0,8.0,58,0.00,,,-99.99,,2013-03-21 05:52:00,
2013-03-21 02:03:00,20.0,9.0,-100.00,East,80,4.0,8.0,58,0.00,,,-99.99,,2013-03-21 06:03:00,
2013-03-21 02:12:00,20.0,9.0,-100.00,ENE,72,4.0,8.0,59,0.00,,,-99.99,,2013-03-21 06:12:00,
2013-03-21 02:22:00,20.0,9.0,-100.00,ENE,70,4.0,8.0,60,0.00,,,-99.99,,2013-03-21 06:22:00,
2013-03-21 02:32:00,20.0,9.0,-100.00,ENE,72,3.0,8.0,60,0.00,,,-99.99,,2013-03-21 06:32:00,
2013-03-21 02:42:00,20.0,10.0,-100.00,ENE,63,4.0,8.0,62,0.00,,,-99.99,,2013-03-21 06:42:00,
2013-03-21 02:52:00,20.0,10.0,-100.00,ENE,72,5.0,8.0,62,0.00,,,-99.99,,2013-03-21 06:52:00,
2013-03-21 03:02:00,20.0,10.0,-100.00,ENE,72,3.0,8.0,63,0.00,,,-99.99,,2013-03-21 07:02:00,
2013-03-21 03:13:00,20.0,10.0,-100.00,East,81,4.0,8.0,63,0.00,,,-99.99,,2013-03-21 07:13:00,
2013-03-21 03:22:00,20.0,10.0,-100.00,ENE,72,5.0,8.0,64,0.00,,,-99.99,,2013-03-21 07:22:00,
2013-03-21 03:32:00,20.0,10.0,-100.00,ENE,77,6.0,8.0,63,0.00,,,-99.99,,2013-03-21 07:32:00,
2013-03-21 03:42:00,19.0,10.0,-100.00,ENE,72,5.0,8.0,64,0.00,,,-99.99,,2013-03-21 07:42:00,
2013-03-21 03:52:00,20.0,10.0,-100.00,ENE,72,5.0,8.0,64,0.00,,,-99.99,,2013-03-21 07:52:00,
2013-03-21 04:02:00,20.0,10.0,-100.00,ENE,72,5.0,8.0,64,0.00,,,-99.99,,2013-03-21 08:02:00,
2013-03-21 04:13:00,20.0,10.0,-100.00,East,79,6.0,8.0,64,0.00,,,-99.99,,2013-03-21 08:13:00,
2013-03-21 04:23:00,20.0,10.0,-100.00,ENE,70,6.0,8.0,64,0.00,,,-99.99,,2013-03-21 08:23:00,
2013-03-21 04:33:00,20.0,12.0,-100.00,ENE,72,6.0,10.0,66,0.00,,,-99.99,,2013-03-21 08:33:00,
2013-03-21 04:42:00,20.0,10.0,-100.00,ENE,73,6.0,10.0,66,0.00,,,-99.99,,2013-03-21 08:42:00,
2013-03-21 04:52:00,19.0,12.0,-100.00,ENE,72,6.0,10.0,68,0.55,,,-99.99,,2013-03-21 08:52:00,
2013-03-21 05:02:00,19.0,12.0,-100.00,ENE,76,6.0,10.0,72,22.68,,,-99.99,,2013-03-21 09:02:00,
2013-03-21 05:11:00,19.0,16.0,-100.00,ENE,73,7.0,10.0,84,21.54,,,-99.99,,2013-03-21 09:11:00,
2013-03-21 05:22:00,19.0,16.0,-100.00,ENE,66,4.0,10.0,85,0.00,,,-99.99,,2013-03-21 09:22:00,
2013-03-21 05:33:00,18.0,14.0,-100.00,East,79,2.0,10.0,82,0.00,,,-99.99,,2013-03-21 09:33:00,
2013-03-21 05:43:00,18.0,14.0,-100.00,East,81,1.0,10.0,81,0.00,,,-99.99,,2013-03-21 09:43:00,
2013-03-21 05:53:00,18.0,14.0,-100.00,ENE,72,2.0,10.0,84,0.00,,,-99.99,,2013-03-21 09:53:00,
2013-03-21 06:03:00,18.0,16.0,-100.00,ENE,73,2.0,10.0,85,0.55,,,-99.99,,2013-03-21 10:03:00,
2013-03-21 06:12:00,18.0,14.0,-100.00,East,81,1.0,10.0,82,0.00,,,-99.99,,2013-03-21 10:12:00,
2013-03-21 06:23:00,20.0,16.0,-100.00,ENE,76,2.0,10.0,77,0.00,,,-99.99,,2013-03-21 10:23:00,
2013-03-21 06:34:00,19.0,14.0,-100.00,ENE,63,1.0,10.0,78,0.00,,,-99.99,,2013-03-21 10:34:00,
2013-03-21 06:42:00,17.0,12.0,-100.00,ENE,63,1.0,10.0,75,0.00,,,-99.99,,2013-03-21 10:42:00,
2013-03-21 06:53:00,18.0,12.0,-100.00,ENE,73,1.0,10.0,73,0.00,,,-99.99,,2013-03-21 10:53:00,
2013-03-21 07:03:00,17.0,12.0,-100.00,ENE,73,0.0,10.0,75,0.00,,,-99.99,,2013-03-21 11:03:00,
2013-03-21 07:13:00,17.0,12.0,-100.00,ENE,63,1.0,10.0,75,0.00,,,-99.99,,2013-03-21 11:13:00,
2013-03-21 07:23:00,18.0,12.0,-100.00,ENE,73,2.0,10.0,78,0.00,,,-99.99,,2013-03-21 11:23:00,
2013-03-21 07:33:00,17.0,14.0,-100.00,East,81,2.0,10.0,80,0.00,,,-99.99,,2013-03-21 11:33:00,
2013-03-21 07:43:00,17.0,12.0,-100.00,East,79,2.0,10.0,80,0.00,,,-99.99,,2013-03-21 11:43:00,
2013-03-21 07:52:00,17.0,14.0,-100.00,ENE,63,1.0,10.0,82,0.00,,,-99.99,,2013-03-21 11:52:00,
2013-03-21 08:03:00,17.0,14.0,-100.00,ENE,72,1.0,10.0,84,0.00,,,-99.99,,2013-03-21 12:03:00,
2013-03-21 08:12:00,18.0,16.0,-100.00,ENE,63,1.0,10.0,84,0.00,,,-99.99,,2013-03-21 12:12:00,
2013-03-21 08:22:00,17.0,14.0,-100.00,East,81,1.0,10.0,85,0.00,,,-99.99,,2013-03-21 12:22:00,
2013-03-21 08:33:00,18.0,16.0,-100.00,ENE,76,2.0,10.0,85,0.00,,,-99.99,,2013-03-21 12:33:00,
2013-03-21 08:43:00,16.0,12.0,-100.00,ENE,72,2.0,10.0,84,0.00,,,-99.99,,2013-03-21 12:43:00,
2013-03-21 08:52:00,17.0,14.0,-100.00,ENE,63,1.0,10.0,84,0.00,,,-99.99,,2013-03-21 12:52:00,
2013-03-21 09:03:00,17.0,14.0,-100.00,ENE,72,1.0,10.0,84,0.00,,,-99.99,,2013-03-21 13:03:00,
2013-03-21 09:12:00,18.0,14.0,-100.00,ENE,63,3.0,10.0,84,0.00,,,-99.99,,2013-03-21 13:12:00,
2013-03-21 09:22:00,18.0,12.0,-100.00,ENE,72,6.0,10.0,77,0.00,,,-99.99,,2013-03-21 13:22:00,
2013-03-21 09:32:00,19.0,12.0,-100.00,ENE,72,3.0,10.0,72,0.00,,,-99.99,,2013-03-21 13:32:00,
2013-03-21 09:42:00,19.0,14.0,-100.00,ENE,72,4.0,10.0,75,3.39,,,-99.99,,2013-03-21 13:42:00,
2013-03-21 09:52:00,20.0,16.0,-100.00,ENE,73,3.0,10.0,77,-99.99,,,-99.99,,2013-03-21 13:52:00,
2013-03-21 10:02:00,17.0,16.0,-100.00,ENE,73,6.0,10.0,89,0.00,,,-99.99,,2013-03-21 14:02:00,
2013-03-21 10:12:00,20.0,19.0,-100.00,ENE,73,3.0,10.0,90,0.00,,,-99.99,,2013-03-21 14:12:00,
2013-03-21 10:22:00,20.0,14.0,-100.00,East,81,4.0,10.0,75,0.00,,,-99.99,,2013-03-21 14:22:00,
2013-03-21 10:32:00,21.0,12.0,-100.00,East,80,6.0,10.0,66,0.00,,,-99.99,,2013-03-21 14:32:00,
2013-03-21 10:42:00,21.0,12.0,-100.00,ENE,76,7.0,10.0,64,0.00,,,-99.99,,2013-03-21 14:42:00,
2013-03-21 10:52:00,20.0,10.0,-100.00,ENE,72,8.0,12.0,62,0.00,,,-99.99,,2013-03-21 14:52:00,
2013-03-21 11:04:00,20.0,10.0,-100.00,East,80,8.0,12.0,60,0.00,,,-99.99,,2013-03-21 15:04:00,
2013-03-21 11:12:00,21.0,10.0,-100.00,ENE,72,9.0,12.0,59,0.00,,,-99.99,,2013-03-21 15:12:00,
2013-03-21 11:22:00,22.0,10.0,-100.00,ENE,63,6.0,12.0,60,0.00,,,-99.99,,2013-03-21 15:22:00,
2013-03-21 11:33:00,21.0,10.0,-100.00,ENE,70,5.0,12.0,59,0.00,,,-99.99,,2013-03-21 15:33:00,
2013-03-21 11:42:00,21.0,10.0,-100.00,ENE,72,8.0,12.0,59,0.00,,,-99.99,,2013-03-21 15:42:00,
2013-03-21 11:53:00,21.0,9.0,-100.00,ENE,72,7.0,12.0,55,0.00,,,-99.99,,2013-03-21 15:53:00,
2013-03-21 12:03:00,21.0,9.0,-100.00,East,80,9.0,12.0,56,0.00,,,-99.99,,2013-03-21 16:03:00,
2013-03-21 12:12:00,21.0,7.0,-100.00,East,80,9.0,12.0,53,0.00,,,-99.99,,2013-03-21 16:12:00,
2013-03-21 12:23:00,23.0,7.0,-100.00,ENE,62,7.0,12.0,49,0.00,,,-99.99,,2013-03-21 16:23:00,
2013-03-21 12:33:00,22.0,9.0,-100.00,ENE,63,8.0,12.0,55,0.00,,,-99.99,,2013-03-21 16:33:00,
2013-03-21 12:42:00,21.0,10.0,-100.00,ENE,72,11.0,15.0,60,0.00,,,-99.99,,2013-03-21 16:42:00,
2013-03-21 12:52:00,24.0,10.0,-100.00,East,81,9.0,15.0,54,0.00,,,-99.99,,2013-03-21 16:52:00,
2013-03-21 13:03:00,23.0,12.0,-100.00,ENE,72,11.0,15.0,59,0.00,,,-99.99,,2013-03-21 17:03:00,
2013-03-21 13:12:00,23.0,10.0,-100.00,ENE,70,9.0,15.0,56,0.00,,,-99.99,,2013-03-21 17:12:00,
2013-03-21 13:23:00,23.0,10.0,-100.00,ENE,70,9.0,15.0,56,0.00,,,-99.99,,2013-03-21 17:23:00,
2013-03-21 13:33:00,24.0,9.0,-100.00,ENE,72,8.0,15.0,49,0.00,,,-99.99,,2013-03-21 17:33:00,
2013-03-21 13:43:00,25.0,10.0,-100.00,East,81,7.0,15.0,53,0.00,,,-99.99,,2013-03-21 17:43:00,
2013-03-21 13:52:00,23.0,12.0,-100.00,ENE,62,8.0,15.0,59,0.00,,,-99.99,,2013-03-21 17:52:00,
2013-03-21 14:02:00,25.0,12.0,-100.00,ENE,64,7.0,15.0,55,0.00,,,-99.99,,2013-03-21 18:02:00,
2013-03-21 14:12:00,24.0,9.0,-100.00,ENE,70,7.0,15.0,51,0.00,,,-99.99,,2013-03-21 18:12:00,
2013-03-21 14:23:00,24.0,10.0,-100.00,ENE,72,8.0,15.0,54,0.00,,,-99.99,,2013-03-21 18:23:00,
2013-03-21 14:32:00,24.0,10.0,-100.00,ENE,70,9.0,15.0,51,0.00,,,-99.99,,2013-03-21 18:32:00,
2013-03-21 14:42:00,24.0,10.0,-100.00,ENE,70,6.0,15.0,53,0.00,,,-99.99,,2013-03-21 18:42:00,
2013-03-21 14:52:00,25.0,10.0,-100.00,East,79,6.0,15.0,51,0.00,,,-99.99,,2013-03-21 18:52:00,
2013-03-21 15:02:00,25.0,10.0,-100.00,East,79,6.0,15.0,51,0.00,,,-99.99,,2013-03-21 19:02:00,
2013-03-21 15:12:00,26.0,12.0,-100.00,ENE,67,6.0,15.0,54,0.00,,,-99.99,,2013-03-21 19:12:00,
2013-03-21 15:22:00,26.0,12.0,-100.00,ENE,72,6.0,15.0,53,0.00,,,-99.99,,2013-03-21 19:22:00,
2013-03-21 15:32:00,26.0,12.0,-100.00,East,79,9.0,15.0,54,0.00,,,-99.99,,2013-03-21 19:32:00,
2013-03-21 15:43:00,27.0,12.0,-100.00,ENE,66,10.0,15.0,53,0.00,,,-99.99,,2013-03-21 19:43:00,
2013-03-21 15:52:00,27.0,12.0,-100.00,ENE,76,9.0,15.0,51,0.00,,,-99.99,,2013-03-21 19:52:00,
2013-03-21 16:02:00,28.0,12.0,-100.00,ENE,72,12.0,15.0,50,0.00,,,-99.99,,2013-03-21 20:02:00,
2013-03-21 16:13:00,27.0,12.0,-100.00,ENE,66,8.0,15.0,50,0.00,,,-99.99,,2013-03-21 20:13:00,
2013-03-21 16:22:00,28.0,14.0,-100.00,ENE,70,9.0,15.0,51,0.00,,,-99.99,,2013-03-21 20:22:00,
2013-03-21 16:33:00,27.0,10.0,-100.00,ENE,70,8.0,15.0,47,0.00,,,-99.99,,2013-03-21 20:33:00,
2013-03-21 16:42:00,28.0,10.0,-100.00,East,80,9.0,15.0,47,0.00,,,-99.99,,2013-03-21 20:42:00,
2013-03-21 16:53:00,28.0,12.0,-100.00,ENE,70,7.0,15.0,50,0.00,,,-99.99,,2013-03-21 20:53:00,
2013-03-21 17:03:00,28.0,12.0,-100.00,ENE,70,7.0,15.0,50,0.00,,,-99.99,,2013-03-21 21:03:00,
2013-03-21 17:12:00,26.0,12.0,-100.00,ENE,63,9.0,15.0,53,0.00,,,-99.99,,2013-03-21 21:12:00,
2013-03-21 17:22:00,27.0,14.0,-100.00,ENE,72,9.0,15.0,54,0.00,,,-99.99,,2013-03-21 21:22:00,
2013-03-21 17:33:00,27.0,14.0,-100.00,ENE,72,7.0,15.0,56,0.00,,,-99.99,,2013-03-21 21:33:00,
2013-03-21 17:43:00,27.0,14.0,-100.00,East,81,7.0,15.0,56,0.00,,,-99.99,,2013-03-21 21:43:00,
2013-03-21 17:53:00,28.0,14.0,-100.00,ENE,70,7.0,15.0,56,0.00,,,-99.99,,2013-03-21 21:53:00,
2013-03-21 18:03:00,28.0,14.0,-100.00,ENE,70,6.0,15.0,56,0.00,,,-99.99,,2013-03-21 22:03:00,
2013-03-21 18:13:00,26.0,16.0,-100.00,ENE,72,8.0,15.0,62,0.00,,,-99.99,,2013-03-21 22:13:00,
2013-03-21 18:23:00,27.0,16.0,-100.00,ENE,66,6.0,15.0,63,0.00,,,-99.99,,2013-03-21 22:23:00,
2013-03-21 18:33:00,27.0,16.0,-100.00,ENE,73,6.0,15.0,59,0.00,,,-99.99,,2013-03-21 22:33:00,
2013-03-21 18:42:00,27.0,16.0,-100.00,ENE,63,8.0,15.0,62,0.00,,,-99.99,,2013-03-21 22:42:00,
2013-03-21 18:52:00,26.0,18.0,-100.00,ENE,63,9.0,15.0,66,0.00,,,-99.99,,2013-03-21 22:52:00,
2013-03-21 19:02:00,26.0,16.0,-100.00,ENE,72,9.0,15.0,64,0.00,,,-99.99,,2013-03-21 23:02:00,
2013-03-21 19:12:00,29.0,19.0,-100.00,East,81,6.0,15.0,63,0.00,,,-99.99,,2013-03-21 23:12:00,
2013-03-21 19:22:00,26.0,16.0,-100.00,ENE,70,7.0,15.0,59,0.00,,,-99.99,,2013-03-21 23:22:00,
2013-03-21 19:33:00,27.0,16.0,-100.00,ENE,72,9.0,15.0,59,0.00,,,-99.99,,2013-03-21 23:33:00,
2013-03-21 19:43:00,29.0,18.0,-100.00,East,79,9.0,15.0,60,0.00,,,-99.99,,2013-03-21 23:43:00,
2013-03-21 19:52:00,27.0,16.0,-100.00,ENE,72,9.0,15.0,60,0.00,,,-99.99,,2013-03-21 23:52:00,
2013-03-21 20:03:00,29.0,18.0,-100.00,East,79,9.0,15.0,62,0.00,,,-99.99,,2013-03-22 00:03:00,
2013-03-21 20:12:00,28.0,19.0,-100.00,ENE,64,6.0,15.0,66,0.00,,,-99.99,,2013-03-22 00:12:00,
2013-03-21 20:22:00,26.0,18.0,-100.00,ENE,72,7.0,15.0,64,0.00,,,-99.99,,2013-03-22 00:22:00,
2013-03-21 20:32:00,28.0,19.0,-100.00,ENE,70,7.0,15.0,66,0.00,,,-99.99,,2013-03-22 00:32:00,
2013-03-21 20:42:00,26.0,16.0,-100.00,ENE,70,6.0,15.0,64,0.00,,,-99.99,,2013-03-22 00:42:00,
2013-03-21 20:52:00,26.0,16.0,-100.00,East,80,6.0,15.0,64,0.00,,,-99.99,,2013-03-22 00:52:00,
2013-03-21 21:03:00,26.0,16.0,-100.00,ENE,73,4.0,15.0,64,0.00,,,-99.99,,2013-03-22 01:03:00,
2013-03-21 21:12:00,26.0,16.0,-100.00,ENE,63,4.0,15.0,64,0.00,,,-99.99,,2013-03-22 01:12:00,
2013-03-21 21:22:00,26.0,18.0,-100.00,ENE,72,2.0,15.0,64,0.00,,,-99.99,,2013-03-22 01:22:00,
2013-03-21 21:32:00,26.0,16.0,-100.00,ENE,72,2.0,15.0,64,0.00,,,-99.99,,2013-03-22 01:32:00,
2013-03-21 21:43:00,28.0,18.0,-100.00,ENE,72,4.0,15.0,63,0.00,,,-99.99,,2013-03-22 01:43:00,
2013-03-21 21:53:00,26.0,16.0,-100.00,ENE,72,4.0,15.0,63,0.00,,,-99.99,,2013-03-22 01:53:00,
2013-03-21 22:03:00,26.0,16.0,-100.00,ENE,63,3.0,15.0,62,0.00,,,-99.99,,2013-03-22 02:03:00,
2013-03-21 22:12:00,26.0,16.0,-100.00,East,81,4.0,15.0,62,0.00,,,-99.99,,2013-03-22 02:12:00,
2013-03-21 22:22:00,26.0,16.0,-100.00,ENE,63,4.0,15.0,60,0.00,,,-99.99,,2013-03-22 02:22:00,
2013-03-21 22:32:00,26.0,16.0,-100.00,ENE,72,3.0,15.0,62,0.00,,,-99.99,,2013-03-22 02:32:00,
2013-03-21 22:43:00,26.0,16.0,-100.00,ENE,72,2.0,15.0,63,0.00,,,-99.99,,2013-03-22 02:43:00,
2013-03-21 22:52:00,26.0,16.0,-100.00,ENE,72,4.0,15.0,63,0.00,,,-99.99,,2013-03-22 02:52:00,
2013-03-21 23:02:00,26.0,18.0,-100.00,ENE,73,4.0,15.0,64,0.00,,,-99.99,,2013-03-22 03:02:00,
2013-03-21 23:12:00,26.0,18.0,-100.00,ENE,62,3.0,15.0,64,0.00,,,-99.99,,2013-03-22 03:12:00,
2013-03-21 23:22:00,25.0,16.0,-100.00,ENE,72,4.0,15.0,64,0.00,,,-99.99,,2013-03-22 03:22:00,
2013-03-21 23:33:00,28.0,18.0,-100.00,ENE,73,4.0,15.0,64,0.00,,,-99.99,,2013-03-22 03:33:00,
2013-03-21 23:43:00,26.0,18.0,-100.00,ENE,66,3.0,15.0,66,0.00,,,-99.99,,2013-03-22 03:43:00,
2013-03-21 23:53:00,26.0,18.0,-100.00,ENE,72,4.0,15.0,66,0.00,,,-99.99,,2013-03-22 03:53:00,